sensor_id;sensor_type;location;lat;lon;timestamp;P1;durP1;ratioP1;P2;durP2;ratioP2
43098;SDS011;28715;51.988;6.020;2023-02-28T00:00:01;8.37;;;4.67;;
43098;SDS011;28715;51.988;6.020;2023-02-28T00:02:33;10.50;;;5.18;;
43098;SDS011;28715;51.988;6.020;2023-02-28T00:04:59;8.33;;;4.83;;
43098;SDS011;28715;51.988;6.020;2023-02-28T00:07:26;8.52;;;5.05;;
43098;SDS011;28715;51.988;6.020;2023-02-28T00:09:52;9.55;;;5.20;;
43098;SDS011;28715;51.988;6.020;2023-02-28T00:12:18;10.17;;;5.40;;
43098;SDS011;28715;51.988;6.020;2023-02-28T00:14:44;8.90;;;4.67;;
43098;SDS011;28715;51.988;6.020;2023-02-28T00:17:09;9.90;;;5.33;;
43098;SDS011;28715;51.988;6.020;2023-02-28T00:19:35;9.63;;;5.10;;
43098;SDS011;28715;51.988;6.020;2023-02-28T00:22:00;10.13;;;4.90;;
43098;SDS011;28715;51.988;6.020;2023-02-28T00:24:26;9.23;;;4.87;;
43098;SDS011;28715;51.988;6.020;2023-02-28T00:26:51;11.33;;;5.40;;
43098;SDS011;28715;51.988;6.020;2023-02-28T00:29:17;9.37;;;4.80;;
43098;SDS011;28715;51.988;6.020;2023-02-28T00:31:43;8.70;;;4.93;;
43098;SDS011;28715;51.988;6.020;2023-02-28T00:34:08;12.17;;;5.50;;
43098;SDS011;28715;51.988;6.020;2023-02-28T00:36:34;9.43;;;4.90;;
43098;SDS011;28715;51.988;6.020;2023-02-28T00:38:59;9.80;;;4.67;;
43098;SDS011;28715;51.988;6.020;2023-02-28T00:41:25;10.93;;;5.47;;
43098;SDS011;28715;51.988;6.020;2023-02-28T00:43:51;10.83;;;4.80;;
43098;SDS011;28715;51.988;6.020;2023-02-28T00:46:16;11.33;;;5.30;;
43098;SDS011;28715;51.988;6.020;2023-02-28T00:48:42;9.20;;;4.67;;
43098;SDS011;28715;51.988;6.020;2023-02-28T00:51:08;11.77;;;5.35;;
43098;SDS011;28715;51.988;6.020;2023-02-28T00:53:34;9.60;;;4.70;;
43098;SDS011;28715;51.988;6.020;2023-02-28T00:55:59;10.93;;;5.33;;
43098;SDS011;28715;51.988;6.020;2023-02-28T00:58:25;9.48;;;4.78;;
43098;SDS011;28715;51.988;6.020;2023-02-28T01:00:51;10.13;;;4.53;;
43098;SDS011;28715;51.988;6.020;2023-02-28T01:03:18;9.27;;;4.90;;
43098;SDS011;28715;51.988;6.020;2023-02-28T01:05:45;10.18;;;4.90;;
43098;SDS011;28715;51.988;6.020;2023-02-28T01:08:12;9.85;;;4.93;;
43098;SDS011;28715;51.988;6.020;2023-02-28T01:10:38;10.65;;;5.32;;
43098;SDS011;28715;51.988;6.020;2023-02-28T01:13:04;10.33;;;5.40;;
43098;SDS011;28715;51.988;6.020;2023-02-28T01:15:30;9.50;;;5.20;;
43098;SDS011;28715;51.988;6.020;2023-02-28T01:17:57;12.85;;;5.53;;
43098;SDS011;28715;51.988;6.020;2023-02-28T01:20:23;10.77;;;5.45;;
43098;SDS011;28715;51.988;6.020;2023-02-28T01:22:49;9.35;;;5.32;;
43098;SDS011;28715;51.988;6.020;2023-02-28T01:25:14;9.27;;;5.13;;
43098;SDS011;28715;51.988;6.020;2023-02-28T01:27:40;9.30;;;5.70;;
43098;SDS011;28715;51.988;6.020;2023-02-28T01:30:06;10.00;;;5.43;;
43098;SDS011;28715;51.988;6.020;2023-02-28T01:32:33;9.60;;;5.30;;
43098;SDS011;28715;51.988;6.020;2023-02-28T01:34:59;8.30;;;5.00;;
43098;SDS011;28715;51.988;6.020;2023-02-28T01:37:24;10.20;;;4.90;;
43098;SDS011;28715;51.988;6.020;2023-02-28T01:39:50;9.27;;;5.33;;
43098;SDS011;28715;51.988;6.020;2023-02-28T01:42:16;10.33;;;5.63;;
43098;SDS011;28715;51.988;6.020;2023-02-28T01:47:22;10.45;;;5.63;;
43098;SDS011;28715;51.988;6.020;2023-02-28T01:49:52;8.63;;;4.70;;
43098;SDS011;28715;51.988;6.020;2023-02-28T01:52:18;12.52;;;6.00;;
43098;SDS011;28715;51.988;6.020;2023-02-28T01:54:45;11.38;;;5.05;;
43098;SDS011;28715;51.988;6.020;2023-02-28T01:57:16;9.50;;;5.63;;
43098;SDS011;28715;51.988;6.020;2023-02-28T02:02:17;10.23;;;5.43;;
43098;SDS011;28715;51.988;6.020;2023-02-28T02:04:46;9.55;;;5.28;;
43098;SDS011;28715;51.988;6.020;2023-02-28T02:07:20;9.43;;;5.78;;
43098;SDS011;28715;51.988;6.020;2023-02-28T02:09:46;10.95;;;6.07;;
43098;SDS011;28715;51.988;6.020;2023-02-28T02:15:36;12.65;;;6.43;;
43098;SDS011;28715;51.988;6.020;2023-02-28T02:17:51;10.70;;;6.00;;
43098;SDS011;28715;51.988;6.020;2023-02-28T02:34:27;10.65;;;5.75;;
43098;SDS011;28715;51.988;6.020;2023-02-28T02:37:00;11.07;;;5.63;;
43098;SDS011;28715;51.988;6.020;2023-02-28T02:40:32;12.95;;;5.90;;
43098;SDS011;28715;51.988;6.020;2023-02-28T02:45:30;11.73;;;6.18;;
43098;SDS011;28715;51.988;6.020;2023-02-28T02:48:03;13.18;;;6.95;;
43098;SDS011;28715;51.988;6.020;2023-02-28T02:50:37;10.40;;;6.13;;
43098;SDS011;28715;51.988;6.020;2023-02-28T02:53:25;12.23;;;6.90;;
43098;SDS011;28715;51.988;6.020;2023-02-28T02:55:57;11.50;;;6.30;;
43098;SDS011;28715;51.988;6.020;2023-02-28T02:58:26;13.52;;;6.90;;
43098;SDS011;28715;51.988;6.020;2023-02-28T03:00:57;12.13;;;6.20;;
43098;SDS011;28715;51.988;6.020;2023-02-28T03:03:26;12.43;;;7.25;;
43098;SDS011;28715;51.988;6.020;2023-02-28T03:05:55;13.50;;;6.60;;
43098;SDS011;28715;51.988;6.020;2023-02-28T03:08:22;11.30;;;7.30;;
43098;SDS011;28715;51.988;6.020;2023-02-28T03:10:48;12.57;;;6.97;;
43098;SDS011;28715;51.988;6.020;2023-02-28T03:13:42;13.52;;;6.95;;
43098;SDS011;28715;51.988;6.020;2023-02-28T03:19:21;10.73;;;6.03;;
43098;SDS011;28715;51.988;6.020;2023-02-28T03:27:17;12.25;;;6.25;;
43098;SDS011;28715;51.988;6.020;2023-02-28T03:35:23;9.93;;;6.03;;
43098;SDS011;28715;51.988;6.020;2023-02-28T03:37:53;10.45;;;6.35;;
43098;SDS011;28715;51.988;6.020;2023-02-28T03:40:27;10.52;;;6.82;;
43098;SDS011;28715;51.988;6.020;2023-02-28T03:42:59;11.48;;;6.45;;
43098;SDS011;28715;51.988;6.020;2023-02-28T03:45:35;11.15;;;6.18;;
43098;SDS011;28715;51.988;6.020;2023-02-28T03:48:03;12.18;;;5.55;;
43098;SDS011;28715;51.988;6.020;2023-02-28T03:51:04;8.45;;;5.35;;
43098;SDS011;28715;51.988;6.020;2023-02-28T03:53:35;11.75;;;6.00;;
43098;SDS011;28715;51.988;6.020;2023-02-28T03:56:15;10.93;;;5.75;;
43098;SDS011;28715;51.988;6.020;2023-02-28T03:58:43;9.82;;;5.70;;
43098;SDS011;28715;51.988;6.020;2023-02-28T04:01:25;10.52;;;5.75;;
43098;SDS011;28715;51.988;6.020;2023-02-28T04:03:56;12.00;;;5.72;;
43098;SDS011;28715;51.988;6.020;2023-02-28T04:06:22;9.27;;;5.70;;
43098;SDS011;28715;51.988;6.020;2023-02-28T04:08:48;10.20;;;6.13;;
43098;SDS011;28715;51.988;6.020;2023-02-28T04:13:39;10.53;;;5.87;;
43098;SDS011;28715;51.988;6.020;2023-02-28T04:16:08;12.67;;;5.20;;
43098;SDS011;28715;51.988;6.020;2023-02-28T04:18:38;10.65;;;5.40;;
43098;SDS011;28715;51.988;6.020;2023-02-28T04:21:04;10.88;;;4.85;;
43098;SDS011;28715;51.988;6.020;2023-02-28T04:23:30;8.35;;;4.78;;
43098;SDS011;28715;51.988;6.020;2023-02-28T04:25:56;8.07;;;4.43;;
43098;SDS011;28715;51.988;6.020;2023-02-28T04:28:22;8.03;;;4.73;;
43098;SDS011;28715;51.988;6.020;2023-02-28T04:30:47;10.30;;;4.50;;
43098;SDS011;28715;51.988;6.020;2023-02-28T04:33:19;7.13;;;4.22;;
43098;SDS011;28715;51.988;6.020;2023-02-28T04:35:45;8.23;;;4.13;;
43098;SDS011;28715;51.988;6.020;2023-02-28T04:38:10;9.37;;;4.23;;
43098;SDS011;28715;51.988;6.020;2023-02-28T04:40:36;7.73;;;4.00;;
43098;SDS011;28715;51.988;6.020;2023-02-28T04:43:01;6.20;;;3.70;;
43098;SDS011;28715;51.988;6.020;2023-02-28T04:45:28;8.48;;;4.10;;
43098;SDS011;28715;51.988;6.020;2023-02-28T04:47:57;7.55;;;4.00;;
43098;SDS011;28715;51.988;6.020;2023-02-28T04:50:23;8.23;;;4.25;;
43098;SDS011;28715;51.988;6.020;2023-02-28T04:52:48;8.43;;;4.22;;
43098;SDS011;28715;51.988;6.020;2023-02-28T04:55:14;7.17;;;4.23;;
43098;SDS011;28715;51.988;6.020;2023-02-28T04:57:40;7.47;;;4.10;;
43098;SDS011;28715;51.988;6.020;2023-02-28T05:00:07;6.18;;;3.90;;
43098;SDS011;28715;51.988;6.020;2023-02-28T05:02:36;8.82;;;4.25;;
43098;SDS011;28715;51.988;6.020;2023-02-28T05:05:04;10.85;;;4.95;;
43098;SDS011;28715;51.988;6.020;2023-02-28T05:07:29;9.03;;;4.17;;
43098;SDS011;28715;51.988;6.020;2023-02-28T05:09:55;8.57;;;3.80;;
43098;SDS011;28715;51.988;6.020;2023-02-28T05:12:20;8.63;;;4.40;;
43098;SDS011;28715;51.988;6.020;2023-02-28T05:14:46;7.50;;;4.43;;
43098;SDS011;28715;51.988;6.020;2023-02-28T05:17:12;8.73;;;4.00;;
43098;SDS011;28715;51.988;6.020;2023-02-28T05:19:37;6.53;;;4.00;;
43098;SDS011;28715;51.988;6.020;2023-02-28T05:22:03;8.93;;;4.00;;
43098;SDS011;28715;51.988;6.020;2023-02-28T05:24:28;13.03;;;4.33;;
43098;SDS011;28715;51.988;6.020;2023-02-28T05:26:54;7.60;;;4.03;;
43098;SDS011;28715;51.988;6.020;2023-02-28T05:29:20;7.27;;;3.83;;
43098;SDS011;28715;51.988;6.020;2023-02-28T05:31:46;7.25;;;4.05;;
43098;SDS011;28715;51.988;6.020;2023-02-28T05:34:12;8.55;;;4.07;;
43098;SDS011;28715;51.988;6.020;2023-02-28T05:36:37;7.37;;;3.70;;
43098;SDS011;28715;51.988;6.020;2023-02-28T05:39:05;8.85;;;3.70;;
43098;SDS011;28715;51.988;6.020;2023-02-28T05:41:32;6.85;;;3.80;;
43098;SDS011;28715;51.988;6.020;2023-02-28T05:43:57;7.93;;;3.80;;
43098;SDS011;28715;51.988;6.020;2023-02-28T05:46:25;7.80;;;3.30;;
43098;SDS011;28715;51.988;6.020;2023-02-28T05:48:50;5.80;;;3.20;;
43098;SDS011;28715;51.988;6.020;2023-02-28T05:51:16;4.77;;;3.00;;
43098;SDS011;28715;51.988;6.020;2023-02-28T05:53:42;6.85;;;2.70;;
43098;SDS011;28715;51.988;6.020;2023-02-28T05:56:08;7.45;;;3.15;;
43098;SDS011;28715;51.988;6.020;2023-02-28T05:58:34;8.97;;;3.50;;
43098;SDS011;28715;51.988;6.020;2023-02-28T06:04:13;6.97;;;2.70;;
43098;SDS011;28715;51.988;6.020;2023-02-28T06:09:09;8.27;;;3.10;;
43098;SDS011;28715;51.988;6.020;2023-02-28T06:11:35;8.60;;;3.42;;
43098;SDS011;28715;51.988;6.020;2023-02-28T06:14:02;5.77;;;2.97;;
43098;SDS011;28715;51.988;6.020;2023-02-28T06:16:29;7.20;;;3.50;;
43098;SDS011;28715;51.988;6.020;2023-02-28T06:18:59;7.18;;;3.38;;
43098;SDS011;28715;51.988;6.020;2023-02-28T06:21:27;7.03;;;3.42;;
43098;SDS011;28715;51.988;6.020;2023-02-28T06:23:53;6.50;;;3.05;;
43098;SDS011;28715;51.988;6.020;2023-02-28T06:26:20;7.60;;;3.30;;
43098;SDS011;28715;51.988;6.020;2023-02-28T06:28:46;6.38;;;3.40;;
43098;SDS011;28715;51.988;6.020;2023-02-28T06:31:13;7.47;;;3.45;;
43098;SDS011;28715;51.988;6.020;2023-02-28T06:33:40;9.77;;;6.05;;
43098;SDS011;28715;51.988;6.020;2023-02-28T06:36:07;6.53;;;3.70;;
43098;SDS011;28715;51.988;6.020;2023-02-28T06:38:34;6.45;;;3.10;;
43098;SDS011;28715;51.988;6.020;2023-02-28T06:41:00;6.35;;;3.78;;
43098;SDS011;28715;51.988;6.020;2023-02-28T06:43:30;8.40;;;3.53;;
43098;SDS011;28715;51.988;6.020;2023-02-28T06:45:58;5.93;;;2.70;;
43098;SDS011;28715;51.988;6.020;2023-02-28T06:51:48;6.47;;;3.50;;
43098;SDS011;28715;51.988;6.020;2023-02-28T06:54:13;6.33;;;2.80;;
43098;SDS011;28715;51.988;6.020;2023-02-28T06:56:39;7.33;;;3.30;;
43098;SDS011;28715;51.988;6.020;2023-02-28T06:59:05;6.60;;;3.53;;
43098;SDS011;28715;51.988;6.020;2023-02-28T07:01:30;9.50;;;3.70;;
43098;SDS011;28715;51.988;6.020;2023-02-28T07:03:57;7.40;;;3.80;;
43098;SDS011;28715;51.988;6.020;2023-02-28T07:06:25;6.20;;;3.53;;
43098;SDS011;28715;51.988;6.020;2023-02-28T07:08:51;6.47;;;3.30;;
43098;SDS011;28715;51.988;6.020;2023-02-28T07:11:18;7.68;;;3.97;;
43098;SDS011;28715;51.988;6.020;2023-02-28T07:13:44;10.35;;;4.05;;
43098;SDS011;28715;51.988;6.020;2023-02-28T07:16:10;8.60;;;3.90;;
43098;SDS011;28715;51.988;6.020;2023-02-28T07:18:36;7.03;;;3.72;;
43098;SDS011;28715;51.988;6.020;2023-02-28T07:21:03;8.07;;;3.97;;
43098;SDS011;28715;51.988;6.020;2023-02-28T07:23:31;8.10;;;4.28;;
43098;SDS011;28715;51.988;6.020;2023-02-28T07:25:56;7.07;;;4.90;;
43098;SDS011;28715;51.988;6.020;2023-02-28T07:28:22;7.10;;;4.10;;
43098;SDS011;28715;51.988;6.020;2023-02-28T07:30:48;7.73;;;4.80;;
43098;SDS011;28715;51.988;6.020;2023-02-28T07:33:14;7.60;;;4.60;;
43098;SDS011;28715;51.988;6.020;2023-02-28T07:35:39;9.10;;;4.93;;
43098;SDS011;28715;51.988;6.020;2023-02-28T07:38:05;8.57;;;5.10;;
43098;SDS011;28715;51.988;6.020;2023-02-28T07:40:32;10.63;;;4.75;;
43098;SDS011;28715;51.988;6.020;2023-02-28T07:43:02;9.80;;;4.47;;
43098;SDS011;28715;51.988;6.020;2023-02-28T07:45:28;9.63;;;3.95;;
43098;SDS011;28715;51.988;6.020;2023-02-28T07:47:56;6.68;;;3.70;;
43098;SDS011;28715;51.988;6.020;2023-02-28T07:50:22;6.83;;;3.37;;
43098;SDS011;28715;51.988;6.020;2023-02-28T07:52:48;6.87;;;3.27;;
43098;SDS011;28715;51.988;6.020;2023-02-28T07:55:13;5.40;;;2.70;;
43098;SDS011;28715;51.988;6.020;2023-02-28T08:00:32;7.07;;;2.85;;
43098;SDS011;28715;51.988;6.020;2023-02-28T08:03:05;6.60;;;3.00;;
43098;SDS011;28715;51.988;6.020;2023-02-28T08:05:31;6.43;;;2.50;;
43098;SDS011;28715;51.988;6.020;2023-02-28T08:07:56;3.70;;;2.00;;
43098;SDS011;28715;51.988;6.020;2023-02-28T08:10:25;5.30;;;2.67;;
43098;SDS011;28715;51.988;6.020;2023-02-28T08:12:50;4.93;;;2.73;;
43098;SDS011;28715;51.988;6.020;2023-02-28T08:15:16;6.73;;;2.70;;
43098;SDS011;28715;51.988;6.020;2023-02-28T08:17:41;4.97;;;2.20;;
43098;SDS011;28715;51.988;6.020;2023-02-28T08:20:07;4.53;;;2.20;;
43098;SDS011;28715;51.988;6.020;2023-02-28T08:22:35;4.93;;;2.20;;
43098;SDS011;28715;51.988;6.020;2023-02-28T08:25:00;4.40;;;2.10;;
43098;SDS011;28715;51.988;6.020;2023-02-28T08:27:26;4.70;;;2.10;;
43098;SDS011;28715;51.988;6.020;2023-02-28T08:29:51;4.67;;;2.40;;
43098;SDS011;28715;51.988;6.020;2023-02-28T08:32:17;5.57;;;2.87;;
43098;SDS011;28715;51.988;6.020;2023-02-28T08:34:42;8.83;;;4.90;;
43098;SDS011;28715;51.988;6.020;2023-02-28T08:37:08;26.90;;;12.77;;
43098;SDS011;28715;51.988;6.020;2023-02-28T08:39:34;13.63;;;7.90;;
43098;SDS011;28715;51.988;6.020;2023-02-28T08:42:01;10.15;;;5.32;;
43098;SDS011;28715;51.988;6.020;2023-02-28T08:44:27;8.23;;;4.75;;
43098;SDS011;28715;51.988;6.020;2023-02-28T08:46:52;9.03;;;4.70;;
43098;SDS011;28715;51.988;6.020;2023-02-28T08:49:18;9.60;;;3.43;;
43098;SDS011;28715;51.988;6.020;2023-02-28T08:51:44;4.93;;;2.37;;
43098;SDS011;28715;51.988;6.020;2023-02-28T08:54:09;4.53;;;2.40;;
43098;SDS011;28715;51.988;6.020;2023-02-28T08:56:41;4.97;;;2.17;;
43098;SDS011;28715;51.988;6.020;2023-02-28T08:59:08;3.97;;;2.10;;
43098;SDS011;28715;51.988;6.020;2023-02-28T09:01:34;3.55;;;1.35;;
43098;SDS011;28715;51.988;6.020;2023-02-28T09:04:01;5.32;;;1.90;;
43098;SDS011;28715;51.988;6.020;2023-02-28T09:06:27;6.00;;;3.17;;
43098;SDS011;28715;51.988;6.020;2023-02-28T09:08:53;4.10;;;1.40;;
43098;SDS011;28715;51.988;6.020;2023-02-28T09:11:23;3.65;;;1.50;;
43098;SDS011;28715;51.988;6.020;2023-02-28T09:13:48;4.73;;;2.27;;
43098;SDS011;28715;51.988;6.020;2023-02-28T09:16:15;5.27;;;2.50;;
43098;SDS011;28715;51.988;6.020;2023-02-28T09:18:41;3.53;;;1.70;;
43098;SDS011;28715;51.988;6.020;2023-02-28T09:21:08;3.40;;;1.43;;
43098;SDS011;28715;51.988;6.020;2023-02-28T09:23:36;5.82;;;2.25;;
43098;SDS011;28715;51.988;6.020;2023-02-28T09:26:04;6.32;;;2.90;;
43098;SDS011;28715;51.988;6.020;2023-02-28T09:28:30;4.25;;;1.80;;
43098;SDS011;28715;51.988;6.020;2023-02-28T09:30:56;5.90;;;2.50;;
43098;SDS011;28715;51.988;6.020;2023-02-28T09:33:23;6.25;;;2.50;;
43098;SDS011;28715;51.988;6.020;2023-02-28T09:35:50;6.85;;;2.58;;
43098;SDS011;28715;51.988;6.020;2023-02-28T09:38:16;2.88;;;1.67;;
43098;SDS011;28715;51.988;6.020;2023-02-28T09:43:46;3.17;;;1.50;;
43098;SDS011;28715;51.988;6.020;2023-02-28T09:46:26;3.40;;;1.60;;
43098;SDS011;28715;51.988;6.020;2023-02-28T09:49:10;9.60;;;4.07;;
43098;SDS011;28715;51.988;6.020;2023-02-28T09:51:59;6.50;;;2.60;;
43098;SDS011;28715;51.988;6.020;2023-02-28T09:54:28;5.03;;;2.20;;
43098;SDS011;28715;51.988;6.020;2023-02-28T09:57:01;10.57;;;3.30;;
43098;SDS011;28715;51.988;6.020;2023-02-28T10:07:27;4.30;;;2.13;;
43098;SDS011;28715;51.988;6.020;2023-02-28T10:10:15;3.15;;;1.63;;
43098;SDS011;28715;51.988;6.020;2023-02-28T10:12:47;3.72;;;1.40;;
43098;SDS011;28715;51.988;6.020;2023-02-28T10:15:17;3.55;;;1.27;;
43098;SDS011;28715;51.988;6.020;2023-02-28T10:17:44;2.47;;;1.00;;
43098;SDS011;28715;51.988;6.020;2023-02-28T10:20:15;2.90;;;1.50;;
43098;SDS011;28715;51.988;6.020;2023-02-28T10:25:24;3.22;;;1.20;;
43098;SDS011;28715;51.988;6.020;2023-02-28T10:28:00;1.75;;;1.00;;
43098;SDS011;28715;51.988;6.020;2023-02-28T10:30:32;3.22;;;1.23;;
43098;SDS011;28715;51.988;6.020;2023-02-28T10:32:58;3.43;;;1.60;;
43098;SDS011;28715;51.988;6.020;2023-02-28T10:35:26;2.90;;;1.33;;
43098;SDS011;28715;51.988;6.020;2023-02-28T10:37:56;3.75;;;1.90;;
43098;SDS011;28715;51.988;6.020;2023-02-28T10:42:56;3.57;;;1.50;;
43098;SDS011;28715;51.988;6.020;2023-02-28T10:45:22;3.95;;;1.70;;
43098;SDS011;28715;51.988;6.020;2023-02-28T10:47:58;5.10;;;1.60;;
43098;SDS011;28715;51.988;6.020;2023-02-28T10:50:27;3.90;;;1.70;;
43098;SDS011;28715;51.988;6.020;2023-02-28T10:52:53;3.00;;;1.50;;
43098;SDS011;28715;51.988;6.020;2023-02-28T10:55:39;2.92;;;1.17;;
43098;SDS011;28715;51.988;6.020;2023-02-28T10:58:28;2.80;;;1.40;;
43098;SDS011;28715;51.988;6.020;2023-02-28T11:00:54;3.17;;;1.58;;
43098;SDS011;28715;51.988;6.020;2023-02-28T11:03:24;3.35;;;1.40;;
43098;SDS011;28715;51.988;6.020;2023-02-28T11:05:55;3.17;;;1.30;;
43098;SDS011;28715;51.988;6.020;2023-02-28T11:08:21;2.75;;;1.20;;
43098;SDS011;28715;51.988;6.020;2023-02-28T11:10:48;2.83;;;1.27;;
43098;SDS011;28715;51.988;6.020;2023-02-28T11:13:25;3.00;;;1.35;;
43098;SDS011;28715;51.988;6.020;2023-02-28T11:15:56;3.22;;;1.60;;
43098;SDS011;28715;51.988;6.020;2023-02-28T11:18:26;2.45;;;1.45;;
43098;SDS011;28715;51.988;6.020;2023-02-28T11:21:00;2.47;;;1.40;;
43098;SDS011;28715;51.988;6.020;2023-02-28T11:23:28;4.10;;;1.48;;
43098;SDS011;28715;51.988;6.020;2023-02-28T11:25:58;3.38;;;1.42;;
43098;SDS011;28715;51.988;6.020;2023-02-28T11:36:26;2.95;;;1.65;;
43098;SDS011;28715;51.988;6.020;2023-02-28T11:38:59;4.47;;;2.22;;
43098;SDS011;28715;51.988;6.020;2023-02-28T11:44:23;2.55;;;1.50;;
43098;SDS011;28715;51.988;6.020;2023-02-28T11:46:57;3.42;;;1.90;;
43098;SDS011;28715;51.988;6.020;2023-02-28T11:49:30;3.17;;;1.65;;
43098;SDS011;28715;51.988;6.020;2023-02-28T11:51:59;2.33;;;1.40;;
43098;SDS011;28715;51.988;6.020;2023-02-28T11:54:48;3.85;;;1.60;;
43098;SDS011;28715;51.988;6.020;2023-02-28T11:57:27;3.42;;;1.58;;
43098;SDS011;28715;51.988;6.020;2023-02-28T12:00:06;2.85;;;1.60;;
43098;SDS011;28715;51.988;6.020;2023-02-28T12:03:01;3.42;;;1.92;;
43098;SDS011;28715;51.988;6.020;2023-02-28T12:05:45;4.35;;;1.65;;
43098;SDS011;28715;51.988;6.020;2023-02-28T12:08:22;3.38;;;1.63;;
43098;SDS011;28715;51.988;6.020;2023-02-28T12:14:00;4.60;;;1.92;;
43098;SDS011;28715;51.988;6.020;2023-02-28T12:19:20;4.22;;;2.22;;
43098;SDS011;28715;51.988;6.020;2023-02-28T12:27:11;4.22;;;2.20;;
43098;SDS011;28715;51.988;6.020;2023-02-28T12:32:30;4.28;;;2.40;;
43098;SDS011;28715;51.988;6.020;2023-02-28T12:37:34;3.53;;;2.03;;
43098;SDS011;28715;51.988;6.020;2023-02-28T12:40:06;3.50;;;1.77;;
43098;SDS011;28715;51.988;6.020;2023-02-28T12:42:48;4.40;;;1.88;;
43098;SDS011;28715;51.988;6.020;2023-02-28T12:45:20;3.35;;;1.85;;
43098;SDS011;28715;51.988;6.020;2023-02-28T12:47:58;3.40;;;2.03;;
43098;SDS011;28715;51.988;6.020;2023-02-28T12:50:27;3.50;;;1.98;;
43098;SDS011;28715;51.988;6.020;2023-02-28T12:53:00;4.60;;;1.67;;
43098;SDS011;28715;51.988;6.020;2023-02-28T12:55:52;2.92;;;1.70;;
43098;SDS011;28715;51.988;6.020;2023-02-28T13:09:37;3.85;;;1.80;;
43098;SDS011;28715;51.988;6.020;2023-02-28T13:12:14;2.70;;;1.70;;
43098;SDS011;28715;51.988;6.020;2023-02-28T13:14:41;3.30;;;1.90;;
43098;SDS011;28715;51.988;6.020;2023-02-28T13:22:22;4.03;;;1.90;;
43098;SDS011;28715;51.988;6.020;2023-02-28T13:27:46;2.80;;;1.38;;
43098;SDS011;28715;51.988;6.020;2023-02-28T13:35:50;3.67;;;1.70;;
43098;SDS011;28715;51.988;6.020;2023-02-28T13:38:35;6.32;;;1.80;;
43098;SDS011;28715;51.988;6.020;2023-02-28T13:44:13;2.90;;;1.58;;
43098;SDS011;28715;51.988;6.020;2023-02-28T13:52:09;4.28;;;1.90;;
43098;SDS011;28715;51.988;6.020;2023-02-28T13:54:48;3.17;;;1.55;;
43098;SDS011;28715;51.988;6.020;2023-02-28T14:03:39;3.38;;;1.83;;
43098;SDS011;28715;51.988;6.020;2023-02-28T14:06:32;4.97;;;1.88;;
43098;SDS011;28715;51.988;6.020;2023-02-28T14:11:38;3.35;;;1.88;;
43098;SDS011;28715;51.988;6.020;2023-02-28T14:14:06;3.38;;;1.70;;
43098;SDS011;28715;51.988;6.020;2023-02-28T14:19:16;3.17;;;1.80;;
43098;SDS011;28715;51.988;6.020;2023-02-28T14:24:29;4.60;;;1.90;;
43098;SDS011;28715;51.988;6.020;2023-02-28T14:27:21;5.15;;;1.90;;
43098;SDS011;28715;51.988;6.020;2023-02-28T14:32:47;3.30;;;1.73;;
43098;SDS011;28715;51.988;6.020;2023-02-28T14:36:00;3.97;;;2.10;;
43098;SDS011;28715;51.988;6.020;2023-02-28T14:38:40;4.00;;;2.00;;
43098;SDS011;28715;51.988;6.020;2023-02-28T14:41:17;3.75;;;2.08;;
43098;SDS011;28715;51.988;6.020;2023-02-28T14:43:52;4.22;;;2.13;;
43098;SDS011;28715;51.988;6.020;2023-02-28T14:46:20;2.88;;;1.77;;
43098;SDS011;28715;51.988;6.020;2023-02-28T14:48:48;3.92;;;1.90;;
43098;SDS011;28715;51.988;6.020;2023-02-28T14:51:21;3.50;;;1.77;;
43098;SDS011;28715;51.988;6.020;2023-02-28T14:53:49;5.13;;;1.90;;
43098;SDS011;28715;51.988;6.020;2023-02-28T14:56:23;3.33;;;1.83;;
43098;SDS011;28715;51.988;6.020;2023-02-28T14:58:53;3.95;;;1.80;;
43098;SDS011;28715;51.988;6.020;2023-02-28T15:01:21;3.08;;;1.50;;
43098;SDS011;28715;51.988;6.020;2023-02-28T15:03:48;3.55;;;1.70;;
43098;SDS011;28715;51.988;6.020;2023-02-28T15:06:22;3.35;;;1.73;;
43098;SDS011;28715;51.988;6.020;2023-02-28T15:08:56;3.03;;;1.70;;
43098;SDS011;28715;51.988;6.020;2023-02-28T15:11:33;3.58;;;1.83;;
43098;SDS011;28715;51.988;6.020;2023-02-28T15:13:58;3.73;;;1.77;;
43098;SDS011;28715;51.988;6.020;2023-02-28T15:16:30;2.85;;;1.67;;
43098;SDS011;28715;51.988;6.020;2023-02-28T15:19:04;2.88;;;1.67;;
43098;SDS011;28715;51.988;6.020;2023-02-28T15:21:38;3.65;;;1.83;;
43098;SDS011;28715;51.988;6.020;2023-02-28T15:24:14;4.68;;;2.10;;
43098;SDS011;28715;51.988;6.020;2023-02-28T15:26:59;4.85;;;2.10;;
43098;SDS011;28715;51.988;6.020;2023-02-28T15:29:30;3.90;;;1.75;;
43098;SDS011;28715;51.988;6.020;2023-02-28T15:32:35;3.45;;;2.08;;
43098;SDS011;28715;51.988;6.020;2023-02-28T15:37:54;3.92;;;2.05;;
43098;SDS011;28715;51.988;6.020;2023-02-28T15:40:50;3.88;;;2.10;;
43098;SDS011;28715;51.988;6.020;2023-02-28T15:46:01;3.22;;;1.90;;
43098;SDS011;28715;51.988;6.020;2023-02-28T15:51:42;4.35;;;2.10;;
43098;SDS011;28715;51.988;6.020;2023-02-28T15:54:10;4.10;;;1.90;;
43098;SDS011;28715;51.988;6.020;2023-02-28T15:56:50;4.80;;;2.30;;
43098;SDS011;28715;51.988;6.020;2023-02-28T15:59:18;5.00;;;2.30;;
43098;SDS011;28715;51.988;6.020;2023-02-28T16:01:52;4.97;;;2.42;;
43098;SDS011;28715;51.988;6.020;2023-02-28T16:04:33;4.22;;;2.10;;
43098;SDS011;28715;51.988;6.020;2023-02-28T16:09:24;4.90;;;2.30;;
43098;SDS011;28715;51.988;6.020;2023-02-28T16:11:50;4.37;;;2.93;;
43098;SDS011;28715;51.988;6.020;2023-02-28T16:14:22;4.70;;;2.40;;
43098;SDS011;28715;51.988;6.020;2023-02-28T16:17:02;6.28;;;2.60;;
43098;SDS011;28715;51.988;6.020;2023-02-28T16:19:36;4.45;;;2.53;;
43098;SDS011;28715;51.988;6.020;2023-02-28T16:22:02;5.40;;;2.63;;
43098;SDS011;28715;51.988;6.020;2023-02-28T16:24:27;5.53;;;2.87;;
43098;SDS011;28715;51.988;6.020;2023-02-28T16:26:53;4.60;;;2.63;;
43098;SDS011;28715;51.988;6.020;2023-02-28T16:29:28;5.70;;;2.65;;
43098;SDS011;28715;51.988;6.020;2023-02-28T16:31:56;3.85;;;2.35;;
43098;SDS011;28715;51.988;6.020;2023-02-28T16:34:22;4.40;;;2.28;;
43098;SDS011;28715;51.988;6.020;2023-02-28T16:36:48;5.35;;;3.10;;
43098;SDS011;28715;51.988;6.020;2023-02-28T16:39:15;4.80;;;2.63;;
43098;SDS011;28715;51.988;6.020;2023-02-28T16:41:44;4.67;;;2.67;;
43098;SDS011;28715;51.988;6.020;2023-02-28T16:44:12;6.82;;;3.22;;
43098;SDS011;28715;51.988;6.020;2023-02-28T16:46:43;5.32;;;2.88;;
43098;SDS011;28715;51.988;6.020;2023-02-28T16:49:12;5.77;;;2.80;;
43098;SDS011;28715;51.988;6.020;2023-02-28T16:51:38;4.22;;;2.67;;
43098;SDS011;28715;51.988;6.020;2023-02-28T16:54:03;5.10;;;3.00;;
43098;SDS011;28715;51.988;6.020;2023-02-28T16:56:29;6.10;;;2.93;;
43098;SDS011;28715;51.988;6.020;2023-02-28T16:58:55;5.70;;;2.90;;
43098;SDS011;28715;51.988;6.020;2023-02-28T17:01:25;5.15;;;3.03;;
43098;SDS011;28715;51.988;6.020;2023-02-28T17:03:52;6.72;;;3.17;;
43098;SDS011;28715;51.988;6.020;2023-02-28T17:08:49;5.85;;;2.97;;
43098;SDS011;28715;51.988;6.020;2023-02-28T17:11:16;4.45;;;2.60;;
43098;SDS011;28715;51.988;6.020;2023-02-28T17:13:42;6.38;;;2.80;;
43098;SDS011;28715;51.988;6.020;2023-02-28T17:16:11;6.23;;;2.70;;
43098;SDS011;28715;51.988;6.020;2023-02-28T17:18:58;4.90;;;2.90;;
43098;SDS011;28715;51.988;6.020;2023-02-28T17:21:25;4.68;;;2.70;;
43098;SDS011;28715;51.988;6.020;2023-02-28T17:23:51;4.20;;;2.70;;
43098;SDS011;28715;51.988;6.020;2023-02-28T17:26:17;4.63;;;2.50;;
43098;SDS011;28715;51.988;6.020;2023-02-28T17:28:45;5.18;;;2.42;;
43098;SDS011;28715;51.988;6.020;2023-02-28T17:31:14;5.70;;;2.85;;
43098;SDS011;28715;51.988;6.020;2023-02-28T17:33:40;7.15;;;2.85;;
43098;SDS011;28715;51.988;6.020;2023-02-28T17:36:06;7.33;;;2.80;;
43098;SDS011;28715;51.988;6.020;2023-02-28T17:38:35;6.15;;;3.17;;
43098;SDS011;28715;51.988;6.020;2023-02-28T17:41:00;5.33;;;3.10;;